Time;durP1;ratioP1;P1;durP2;ratioP2;P2;SDS_P1;SDS_P2;PMS_P1;PMS_P2;Temp;Humidity;BMP_temperature;BMP_pressure;BME280_temperature;BME280_humidity;BME280_pressure;Samples;Min_cycle;Max_cycle;Signal;HPM_P1;HPM_P2
2023/12/05 00:00:06;;;;;;;5.85;1.20;;;12.00;53.90;;;;;;345448;28;1024;-55
2023/12/05 00:00:17;;;;;;;5.22;1.15;;;11.90;53.60;;;;;;345591;28;1043;-55
2023/12/05 00:00:28;;;;;;;4.18;1.30;;;11.90;53.70;;;;;;345564;28;1510;-57
2023/12/05 00:00:39;;;;;;;2.92;1.23;;;11.90;53.90;;;;;;345281;28;2036;-56
2023/12/05 00:00:50;;;;;;;2.83;1.25;;;11.90;54.00;;;;;;345461;28;1527;-56
2023/12/05 00:01:00;;;;;;;3.70;1.15;;;11.90;54.00;;;;;;345593;28;797;-57
2023/12/05 00:01:11;;;;;;;4.45;1.30;;;12.00;54.10;;;;;;345573;28;936;-57
2023/12/05 00:01:22;;;;;;;4.20;1.40;;;11.90;54.00;;;;;;345594;28;802;-55
2023/12/05 00:01:33;;;;;;;4.07;1.40;;;12.00;54.00;;;;;;345508;28;1014;-55
2023/12/05 00:01:44;;;;;;;3.70;1.35;;;12.00;54.00;;;;;;345561;28;1029;-55
2023/12/05 00:01:54;;;;;;;2.85;1.23;;;12.00;53.90;;;;;;345588;28;881;-56
2023/12/05 00:02:05;;;;;;;3.85;1.38;;;12.00;54.00;;;;;;345535;28;870;-55
2023/12/05 00:02:16;;;;;;;4.50;1.30;;;12.00;54.10;;;;;;345479;28;1041;-55
2023/12/05 00:02:27;;;;;;;4.63;1.30;;;12.00;54.00;;;;;;345576;28;825;-55
2023/12/05 00:02:38;;;;;;;5.33;1.30;;;12.10;53.90;;;;;;345542;28;1300;-58
2023/12/05 00:02:48;;;;;;;6.03;1.33;;;12.10;53.90;;;;;;345556;28;817;-56
2023/12/05 00:02:59;;;;;;;5.82;1.40;;;12.10;53.90;;;;;;345496;28;894;-57
2023/12/05 00:03:11;;;;;;;4.82;1.30;;;12.10;53.80;;;;;;345569;28;1844;-57
2023/12/05 00:03:22;;;;;;;3.10;1.20;;;12.20;53.80;;;;;;345553;28;825;-56
2023/12/05 00:03:35;;;;;;;2.92;1.20;;;12.20;53.60;;;;;;345561;28;905;-57
2023/12/05 00:03:46;;;;;;;2.90;1.30;;;12.10;53.60;;;;;;345499;28;1502;-56
2023/12/05 00:03:56;;;;;;;3.40;1.23;;;12.10;53.70;;;;;;345506;28;1410;-56
2023/12/05 00:04:07;;;;;;;4.43;1.30;;;12.00;53.50;;;;;;345586;28;897;-55
2023/12/05 00:04:18;;;;;;;5.07;1.30;;;12.00;53.50;;;;;;345527;28;890;-55
2023/12/05 00:04:29;;;;;;;4.97;1.35;;;12.00;53.80;;;;;;345432;28;1185;-56
2023/12/05 00:04:39;;;;;;;3.35;1.13;;;12.00;53.80;;;;;;345552;28;948;-55
2023/12/05 00:04:50;;;;;;;2.45;1.00;;;12.10;53.80;;;;;;345495;28;1404;-56
2023/12/05 00:05:01;;;;;;;2.73;1.17;;;12.10;53.80;;;;;;345571;28;1023;-55
2023/12/05 00:05:12;;;;;;;3.13;1.27;;;12.10;53.80;;;;;;345496;28;1760;-57
2023/12/05 00:05:23;;;;;;;3.25;1.30;;;12.10;53.60;;;;;;345506;28;2414;-55
2023/12/05 00:05:33;;;;;;;3.75;1.17;;;12.10;53.70;;;;;;345513;28;1486;-55
2023/12/05 00:05:44;;;;;;;4.15;1.20;;;12.10;53.70;;;;;;345524;28;870;-55
2023/12/05 00:05:55;;;;;;;4.97;1.20;;;12.10;53.70;;;;;;345447;28;992;-56
2023/12/05 00:06:10;;;;;;;4.05;1.15;;;12.10;53.70;;;;;;345470;28;1170;-56
2023/12/05 00:06:21;;;;;;;4.10;1.10;;;12.10;53.60;;;;;;345505;28;1170;-56
2023/12/05 00:06:32;;;;;;;4.93;1.20;;;12.20;53.60;;;;;;345492;28;1149;-55
2023/12/05 00:06:42;;;;;;;4.93;1.38;;;12.20;53.50;;;;;;345422;28;986;-58
2023/12/05 00:06:53;;;;;;;4.28;1.30;;;12.20;53.50;;;;;;345547;28;980;-57
2023/12/05 00:07:04;;;;;;;6.68;1.30;;;12.20;53.40;;;;;;345523;28;932;-55
2023/12/05 00:07:15;;;;;;;7.45;1.30;;;12.20;53.30;;;;;;345592;28;916;-56
2023/12/05 00:07:25;;;;;;;6.97;1.33;;;12.20;53.40;;;;;;345436;28;1322;-57
2023/12/05 00:07:36;;;;;;;3.83;1.20;;;12.20;53.30;;;;;;345579;28;968;-56
2023/12/05 00:07:47;;;;;;;3.83;1.27;;;12.20;53.30;;;;;;345499;28;1303;-56
2023/12/05 00:07:58;;;;;;;4.43;1.45;;;12.20;53.30;;;;;;345524;28;1028;-56
2023/12/05 00:08:09;;;;;;;4.03;1.52;;;12.20;53.20;;;;;;345412;28;1252;-57
2023/12/05 00:08:19;;;;;;;3.95;1.55;;;12.20;53.20;;;;;;345556;28;802;-56
2023/12/05 00:08:30;;;;;;;3.33;1.30;;;12.20;53.20;;;;;;345558;28;908;-57
2023/12/05 00:08:41;;;;;;;3.95;1.40;;;12.20;53.10;;;;;;345566;28;1091;-56
2023/12/05 00:08:52;;;;;;;4.10;1.40;;;12.20;53.00;;;;;;345495;28;1752;-56
2023/12/05 00:09:03;;;;;;;5.03;1.50;;;12.30;53.00;;;;;;345565;28;1015;-55
2023/12/05 00:09:14;;;;;;;4.72;1.42;;;12.30;52.90;;;;;;345523;28;1806;-55
2023/12/05 00:09:25;;;;;;;3.92;1.15;;;12.30;53.20;;;;;;345578;28;845;-56
2023/12/05 00:09:36;;;;;;;2.73;1.10;;;12.30;53.20;;;;;;345436;28;1486;-56
2023/12/05 00:09:47;;;;;;;3.17;1.00;;;12.30;53.10;;;;;;345529;28;889;-56
2023/12/05 00:09:59;;;;;;;4.20;1.10;;;12.30;53.10;;;;;;345550;28;799;-55
2023/12/05 00:10:10;;;;;;;4.30;1.17;;;12.30;53.00;;;;;;348047;28;932;-55
2023/12/05 00:10:21;;;;;;;3.50;1.17;;;12.30;53.00;;;;;;348036;28;2984;-57
2023/12/05 00:10:32;;;;;;;4.80;1.30;;;12.30;52.90;;;;;;348211;28;818;-56
2023/12/05 00:10:43;;;;;;;5.13;1.35;;;12.30;52.90;;;;;;348130;28;1003;-57
2023/12/05 00:10:54;;;;;;;5.70;1.50;;;12.30;52.90;;;;;;348123;28;1020;-56
2023/12/05 00:11:07;;;;;;;3.50;1.20;;;12.30;52.90;;;;;;348145;28;1276;-57
2023/12/05 00:11:18;;;;;;;2.00;0.95;;;12.30;52.90;;;;;;348147;28;1002;-56
2023/12/05 00:11:29;;;;;;;2.72;1.00;;;12.30;52.80;;;;;;348136;28;1099;-57
2023/12/05 00:11:40;;;;;;;3.20;1.27;;;12.30;52.80;;;;;;348224;28;959;-57
2023/12/05 00:11:51;;;;;;;3.03;1.33;;;12.30;52.80;;;;;;348107;28;1332;-57
2023/12/05 00:12:02;;;;;;;2.83;1.52;;;12.30;52.80;;;;;;347869;28;915;-56
2023/12/05 00:12:13;;;;;;;3.00;1.40;;;12.30;52.90;;;;;;345563;28;995;-56
2023/12/05 00:12:24;;;;;;;3.38;1.50;;;12.40;52.80;;;;;;345491;28;1068;-57
2023/12/05 00:12:35;;;;;;;3.23;1.50;;;12.30;52.80;;;;;;345537;28;1343;-55
2023/12/05 00:12:46;;;;;;;3.72;1.46;;;12.40;52.80;;;;;;345563;28;1923;-58
2023/12/05 00:12:57;;;;;;;3.13;1.37;;;12.40;52.80;;;;;;345461;28;1057;-56
2023/12/05 00:13:08;;;;;;;2.88;1.10;;;12.30;52.70;;;;;;345542;28;1044;-56
2023/12/05 00:13:19;;;;;;;3.22;1.30;;;12.40;52.80;;;;;;345545;28;1027;-57
2023/12/05 00:13:29;;;;;;;4.05;1.27;;;12.40;52.90;;;;;;345456;28;1084;-56
2023/12/05 00:13:40;;;;;;;4.60;1.33;;;12.30;52.80;;;;;;345475;28;1008;-55
2023/12/05 00:13:51;;;;;;;4.68;1.30;;;12.40;52.80;;;;;;345561;28;857;-56
2023/12/05 00:14:02;;;;;;;4.13;1.25;;;12.40;52.70;;;;;;345441;28;915;-55
2023/12/05 00:14:13;;;;;;;3.78;1.20;;;12.30;52.70;;;;;;345579;28;833;-54
2023/12/05 00:14:24;;;;;;;3.33;1.20;;;12.30;52.80;;;;;;345520;28;1318;-58
2023/12/05 00:14:34;;;;;;;4.47;1.35;;;12.40;52.80;;;;;;345457;28;1054;-56
2023/12/05 00:14:45;;;;;;;4.30;1.40;;;12.40;52.90;;;;;;345513;28;1012;-57
2023/12/05 00:14:56;;;;;;;5.07;1.30;;;12.40;52.90;;;;;;345481;28;1084;-55
2023/12/05 00:15:08;;;;;;;3.83;1.10;;;12.40;52.90;;;;;;345547;28;1125;-58
2023/12/05 00:15:19;;;;;;;2.97;1.02;;;12.40;53.00;;;;;;345463;28;1194;-56
2023/12/05 00:15:30;;;;;;;2.45;1.10;;;12.40;52.90;;;;;;345450;28;1975;-57
2023/12/05 00:15:40;;;;;;;2.88;1.13;;;12.40;52.80;;;;;;345473;28;1388;-56
2023/12/05 00:15:51;;;;;;;3.33;1.10;;;12.40;52.60;;;;;;345382;28;1294;-56
2023/12/05 00:16:02;;;;;;;3.90;1.13;;;12.40;52.50;;;;;;345422;28;1040;-56
2023/12/05 00:16:13;;;;;;;3.38;1.10;;;12.40;52.40;;;;;;345405;28;1150;-57
2023/12/05 00:16:24;;;;;;;3.57;1.13;;;12.30;52.40;;;;;;345439;28;1248;-55
2023/12/05 00:16:35;;;;;;;3.65;1.20;;;12.30;52.40;;;;;;345422;28;1019;-55
2023/12/05 00:16:46;;;;;;;4.00;1.33;;;12.40;52.40;;;;;;345333;28;1227;-57
2023/12/05 00:16:56;;;;;;;3.80;1.42;;;12.40;52.30;;;;;;345459;28;956;-56
2023/12/05 00:17:07;;;;;;;3.20;1.40;;;12.40;52.30;;;;;;345459;28;884;-56
2023/12/05 00:17:18;;;;;;;3.20;1.23;;;12.40;52.30;;;;;;345430;28;888;-57
2023/12/05 00:17:29;;;;;;;3.67;1.13;;;12.40;52.20;;;;;;345273;28;1579;-56
2023/12/05 00:17:40;;;;;;;3.75;1.10;;;12.40;52.30;;;;;;345402;28;1040;-56
2023/12/05 00:17:51;;;;;;;4.63;1.30;;;12.40;52.30;;;;;;345492;28;1351;-56
2023/12/05 00:18:02;;;;;;;4.50;1.40;;;12.40;52.30;;;;;;345543;28;1885;-56
2023/12/05 00:18:12;;;;;;;5.30;1.50;;;12.40;52.40;;;;;;345436;28;1065;-56
2023/12/05 00:18:24;;;;;;;4.88;1.52;;;12.40;52.50;;;;;;345507;28;992;-57
2023/12/05 00:18:38;;;;;;;5.40;1.60;;;12.30;52.40;;;;;;345489;28;1054;-55
2023/12/05 00:18:49;;;;;;;5.88;1.50;;;12.40;52.50;;;;;;345457;28;933;-56
2023/12/05 00:19:00;;;;;;;5.20;1.40;;;12.40;52.50;;;;;;345497;28;1451;-56
2023/12/05 00:19:11;;;;;;;4.32;1.33;;;12.40;52.50;;;;;;345437;28;1174;-56
2023/12/05 00:19:22;;;;;;;3.83;1.40;;;12.40;52.50;;;;;;345511;28;1225;-55
2023/12/05 00:19:32;;;;;;;3.60;1.10;;;12.40;52.50;;;;;;345431;28;1032;-55
2023/12/05 00:19:43;;;;;;;4.10;1.27;;;12.40;52.50;;;;;;345521;28;960;-56
2023/12/05 00:19:54;;;;;;;3.70;1.20;;;12.40;52.50;;;;;;345487;28;1452;-56
2023/12/05 00:20:06;;;;;;;3.60;1.30;;;12.40;52.40;;;;;;345545;28;976;-57
2023/12/05 00:20:16;;;;;;;2.95;1.13;;;12.40;52.30;;;;;;345401;28;1143;-56
2023/12/05 00:20:27;;;;;;;2.92;1.25;;;12.40;52.20;;;;;;345513;28;1109;-56
2023/12/05 00:20:38;;;;;;;3.40;1.30;;;12.40;52.10;;;;;;345544;28;861;-57
2023/12/05 00:20:49;;;;;;;3.22;1.15;;;12.40;52.10;;;;;;345548;28;1032;-56
2023/12/05 00:21:00;;;;;;;2.80;1.00;;;12.40;52.00;;;;;;345413;28;1036;-56
2023/12/05 00:21:10;;;;;;;2.40;1.00;;;12.40;52.00;;;;;;345531;28;1028;-57
2023/12/05 00:21:21;;;;;;;2.55;0.98;;;12.40;52.00;;;;;;345560;28;847;-54
2023/12/05 00:21:32;;;;;;;2.97;1.00;;;12.40;52.00;;;;;;345501;28;881;-56
2023/12/05 00:21:43;;;;;;;3.77;1.07;;;12.40;52.00;;;;;;345470;28;1287;-55
2023/12/05 00:21:53;;;;;;;3.90;1.20;;;12.40;52.00;;;;;;345432;28;1674;-56
2023/12/05 00:22:04;;;;;;;3.97;1.25;;;12.40;51.90;;;;;;345557;28;1071;-56
2023/12/05 00:22:15;;;;;;;3.13;1.10;;;12.40;51.90;;;;;;345523;28;984;-57
2023/12/05 00:22:27;;;;;;;3.75;1.15;;;12.40;51.90;;;;;;345553;28;919;-55
2023/12/05 00:22:38;;;;;;;3.55;1.13;;;12.40;51.90;;;;;;345482;28;1031;-55
2023/12/05 00:22:48;;;;;;;3.15;1.15;;;12.40;51.90;;;;;;345426;28;1408;-55
2023/12/05 00:23:00;;;;;;;4.60;1.37;;;12.40;51.90;;;;;;345576;28;854;-57
2023/12/05 00:23:10;;;;;;;4.95;1.35;;;12.40;51.90;;;;;;345531;28;1050;-56
2023/12/05 00:23:21;;;;;;;5.55;1.45;;;12.40;52.00;;;;;;345384;28;1015;-56
2023/12/05 00:23:32;;;;;;;4.05;1.45;;;12.40;52.20;;;;;;345562;28;1019;-55
2023/12/05 00:23:43;;;;;;;3.50;1.50;;;12.40;52.30;;;;;;345506;28;922;-55
2023/12/05 00:23:54;;;;;;;3.30;1.60;;;12.50;52.20;;;;;;345526;28;992;-55
2023/12/05 00:24:05;;;;;;;3.63;1.70;;;12.40;52.20;;;;;;345452;28;1331;-56
2023/12/05 00:24:16;;;;;;;4.15;1.75;;;12.40;52.20;;;;;;345463;28;1028;-55
2023/12/05 00:24:27;;;;;;;4.13;1.63;;;12.40;52.20;;;;;;345536;28;833;-56
2023/12/05 00:24:37;;;;;;;3.65;1.40;;;12.40;52.20;;;;;;345468;28;2728;-55
2023/12/05 00:24:48;;;;;;;3.35;1.20;;;12.40;52.20;;;;;;345400;28;961;-56
2023/12/05 00:24:59;;;;;;;3.42;1.20;;;12.40;52.20;;;;;;345481;28;1135;-56
2023/12/05 00:25:10;;;;;;;3.07;1.27;;;12.40;52.20;;;;;;345567;28;936;-55
2023/12/05 00:25:21;;;;;;;3.83;1.60;;;12.40;52.20;;;;;;345543;28;856;-56
2023/12/05 00:25:32;;;;;;;3.80;1.60;;;12.40;52.20;;;;;;345404;28;1561;-56
2023/12/05 00:25:43;;;;;;;3.80;1.63;;;12.40;52.20;;;;;;345589;28;861;-56
2023/12/05 00:25:53;;;;;;;3.83;1.50;;;12.40;52.20;;;;;;345451;28;1537;-55
2023/12/05 00:26:04;;;;;;;3.78;1.42;;;12.40;52.20;;;;;;345484;28;1103;-56
2023/12/05 00:26:15;;;;;;;4.25;1.40;;;12.40;52.20;;;;;;345361;28;1539;-55
2023/12/05 00:26:26;;;;;;;4.07;1.35;;;12.40;52.30;;;;;;345560;28;1312;-55
2023/12/05 00:26:37;;;;;;;4.35;1.38;;;12.40;52.40;;;;;;345525;28;869;-55
2023/12/05 00:26:48;;;;;;;3.70;1.38;;;12.40;52.50;;;;;;345534;28;833;-56
2023/12/05 00:26:58;;;;;;;3.78;1.40;;;12.40;52.50;;;;;;345437;28;1083;-56
2023/12/05 00:27:09;;;;;;;4.93;1.53;;;12.40;52.50;;;;;;345480;28;1023;-55
2023/12/05 00:27:20;;;;;;;5.22;1.50;;;12.40;52.40;;;;;;345519;28;1852;-56
2023/12/05 00:27:31;;;;;;;4.85;1.48;;;12.40;52.30;;;;;;345514;28;1901;-56
2023/12/05 00:27:42;;;;;;;3.90;1.40;;;12.40;52.30;;;;;;345450;28;1028;-55
2023/12/05 00:27:53;;;;;;;3.67;1.40;;;12.40;52.30;;;;;;345579;28;833;-58
2023/12/05 00:28:04;;;;;;;3.83;1.38;;;12.40;52.40;;;;;;345496;28;1943;-57
2023/12/05 00:28:14;;;;;;;4.25;1.40;;;12.40;52.30;;;;;;345528;28;1028;-55
2023/12/05 00:28:25;;;;;;;5.38;1.38;;;12.40;52.30;;;;;;345418;28;1136;-56
2023/12/05 00:28:36;;;;;;;5.70;1.50;;;12.40;52.40;;;;;;345563;28;1163;-55
2023/12/05 00:28:47;;;;;;;5.97;1.60;;;12.40;52.40;;;;;;345542;28;837;-57
2023/12/05 00:28:58;;;;;;;4.05;1.55;;;12.40;52.40;;;;;;345533;28;865;-55
2023/12/05 00:29:09;;;;;;;3.80;1.60;;;12.40;52.40;;;;;;345464;28;1005;-56
2023/12/05 00:29:20;;;;;;;4.33;1.70;;;12.40;52.40;;;;;;345501;28;1449;-55
2023/12/05 00:29:30;;;;;;;5.05;1.90;;;12.40;52.40;;;;;;345525;28;877;-56
2023/12/05 00:29:41;;;;;;;4.57;2.05;;;12.40;52.50;;;;;;345445;28;1107;-56
2023/12/05 00:29:52;;;;;;;4.38;2.10;;;12.40;52.50;;;;;;345414;28;1084;-57
2023/12/05 00:30:03;;;;;;;4.50;2.15;;;12.40;52.60;;;;;;345570;28;1086;-57
2023/12/05 00:30:14;;;;;;;4.72;2.08;;;12.40;52.50;;;;;;345493;28;960;-56
2023/12/05 00:30:25;;;;;;;4.88;1.85;;;12.40;52.60;;;;;;345488;28;1032;-56
2023/12/05 00:30:36;;;;;;;4.32;1.77;;;12.40;52.60;;;;;;345521;28;857;-56
2023/12/05 00:30:46;;;;;;;4.97;1.70;;;12.40;52.50;;;;;;345561;28;955;-56
2023/12/05 00:30:57;;;;;;;5.60;1.70;;;12.40;52.50;;;;;;345505;28;904;-55
2023/12/05 00:31:08;;;;;;;6.65;1.92;;;12.40;52.50;;;;;;345580;28;911;-58
2023/12/05 00:31:19;;;;;;;5.40;1.80;;;12.40;52.50;;;;;;345512;28;821;-56
2023/12/05 00:31:29;;;;;;;4.35;1.73;;;12.40;52.50;;;;;;345460;28;986;-56
2023/12/05 00:31:40;;;;;;;4.10;1.57;;;12.40;52.40;;;;;;345560;28;782;-55
2023/12/05 00:31:52;;;;;;;3.65;1.70;;;12.40;52.40;;;;;;345537;28;1087;-55
2023/12/05 00:32:03;;;;;;;3.60;1.80;;;12.40;52.30;;;;;;345438;28;1209;-56
2023/12/05 00:32:14;;;;;;;3.95;1.90;;;12.40;52.40;;;;;;345557;28;1083;-56
2023/12/05 00:32:25;;;;;;;5.68;2.35;;;12.40;52.40;;;;;;345586;28;905;-55
2023/12/05 00:32:35;;;;;;;5.82;2.28;;;12.40;52.40;;;;;;345396;28;1258;-54
2023/12/05 00:32:46;;;;;;;5.38;2.08;;;12.40;52.40;;;;;;345536;28;1015;-56
2023/12/05 00:32:57;;;;;;;3.10;1.48;;;12.40;52.40;;;;;;345503;28;972;-57
2023/12/05 00:33:08;;;;;;;3.73;1.57;;;12.40;52.40;;;;;;345400;28;1325;-57
2023/12/05 00:33:18;;;;;;;4.15;1.60;;;12.40;52.40;;;;;;345462;28;1096;-55
2023/12/05 00:33:29;;;;;;;4.65;1.60;;;12.40;52.40;;;;;;345557;28;834;-58
2023/12/05 00:33:40;;;;;;;5.30;1.60;;;12.40;52.40;;;;;;345405;28;1011;-56
2023/12/05 00:33:51;;;;;;;6.07;1.60;;;12.40;52.40;;;;;;345561;28;857;-56
2023/12/05 00:34:02;;;;;;;5.47;1.60;;;12.40;52.40;;;;;;345543;28;984;-56
2023/12/05 00:34:12;;;;;;;4.43;1.30;;;12.40;52.40;;;;;;345404;28;1031;-55
2023/12/05 00:34:23;;;;;;;3.67;1.20;;;12.40;52.40;;;;;;345525;28;1096;-56
2023/12/05 00:34:34;;;;;;;3.97;1.33;;;12.40;52.40;;;;;;345503;28;1009;-56
2023/12/05 00:34:45;;;;;;;4.65;1.50;;;12.40;52.30;;;;;;345432;28;1147;-57
2023/12/05 00:34:57;;;;;;;4.43;1.50;;;12.40;52.30;;;;;;345547;28;925;-55
2023/12/05 00:35:08;;;;;;;4.43;1.40;;;12.40;52.30;;;;;;345556;28;1026;-55
2023/12/05 00:35:19;;;;;;;4.15;1.40;;;12.40;52.30;;;;;;345478;28;2059;-55
2023/12/05 00:35:30;;;;;;;4.55;1.48;;;12.40;52.30;;;;;;345349;28;1928;-56
2023/12/05 00:35:41;;;;;;;4.00;1.43;;;12.40;52.30;;;;;;345547;28;1750;-56
2023/12/05 00:35:52;;;;;;;4.10;1.50;;;12.40;52.30;;;;;;345554;28;1047;-56
2023/12/05 00:36:03;;;;;;;3.28;1.23;;;12.30;52.20;;;;;;345458;28;1575;-56
2023/12/05 00:36:14;;;;;;;4.13;1.38;;;12.40;52.20;;;;;;345509;28;1063;-55
2023/12/05 00:36:25;;;;;;;4.60;1.50;;;12.40;52.20;;;;;;345489;28;998;-56
2023/12/05 00:36:35;;;;;;;5.57;1.60;;;12.40;52.20;;;;;;345465;28;1192;-56
2023/12/05 00:36:46;;;;;;;4.55;1.52;;;12.40;52.20;;;;;;345487;28;1454;-56
2023/12/05 00:36:57;;;;;;;4.57;1.50;;;12.40;52.20;;;;;;345565;28;1004;-56
2023/12/05 00:37:08;;;;;;;4.15;1.45;;;12.30;52.20;;;;;;345495;28;1075;-55
2023/12/05 00:37:19;;;;;;;4.37;1.30;;;12.40;52.20;;;;;;345455;28;1057;-57
2023/12/05 00:37:29;;;;;;;4.03;1.30;;;12.40;52.20;;;;;;345539;28;1965;-57
2023/12/05 00:37:40;;;;;;;3.05;1.27;;;12.40;52.20;;;;;;345418;28;1448;-56
2023/12/05 00:37:51;;;;;;;3.15;1.40;;;12.40;52.30;;;;;;345522;28;987;-55
2023/12/05 00:38:02;;;;;;;3.42;1.60;;;12.40;52.20;;;;;;345531;28;1830;-56
2023/12/05 00:38:13;;;;;;;3.63;1.60;;;12.40;52.30;;;;;;345441;28;884;-56
2023/12/05 00:38:23;;;;;;;3.28;1.60;;;12.40;52.30;;;;;;345499;28;1549;-56
2023/12/05 00:38:34;;;;;;;3.50;1.53;;;12.40;52.40;;;;;;345580;28;1003;-56
2023/12/05 00:38:45;;;;;;;3.58;1.45;;;12.40;52.60;;;;;;345517;28;821;-56
2023/12/05 00:38:56;;;;;;;3.42;1.40;;;12.40;52.80;;;;;;345519;28;1015;-56
2023/12/05 00:39:07;;;;;;;3.53;1.48;;;12.30;52.80;;;;;;345422;28;965;-56
2023/12/05 00:39:19;;;;;;;4.07;1.55;;;12.30;53.00;;;;;;345484;28;1621;-56
2023/12/05 00:39:29;;;;;;;4.75;1.58;;;12.30;52.70;;;;;;345562;28;1068;-56
2023/12/05 00:39:40;;;;;;;5.25;1.60;;;12.30;52.50;;;;;;345513;28;958;-55
2023/12/05 00:39:51;;;;;;;4.10;1.60;;;12.30;52.30;;;;;;345525;28;866;-56
2023/12/05 00:40:03;;;;;;;4.05;1.48;;;12.30;52.20;;;;;;345474;28;909;-55
2023/12/05 00:40:14;;;;;;;4.70;1.45;;;12.30;52.30;;;;;;345523;28;1032;-55
2023/12/05 00:40:29;;;;;;;5.30;1.60;;;12.30;52.20;;;;;;345546;28;853;-56
2023/12/05 00:40:40;;;;;;;4.30;1.63;;;12.30;52.10;;;;;;345521;28;1046;-55
2023/12/05 00:40:51;;;;;;;3.53;1.47;;;12.30;52.20;;;;;;345553;28;846;-56
2023/12/05 00:41:02;;;;;;;3.78;1.63;;;12.20;52.20;;;;;;345420;28;1067;-55
2023/12/05 00:41:12;;;;;;;3.53;1.55;;;12.20;52.20;;;;;;345506;28;1146;-55
2023/12/05 00:41:26;;;;;;;3.90;1.63;;;12.30;52.20;;;;;;345540;28;878;-55
2023/12/05 00:41:37;;;;;;;3.75;1.60;;;12.30;52.20;;;;;;345395;28;1119;-56
2023/12/05 00:41:48;;;;;;;3.67;1.50;;;12.30;52.10;;;;;;345468;28;1095;-55
2023/12/05 00:41:58;;;;;;;4.02;1.58;;;12.20;52.00;;;;;;345478;28;932;-55
2023/12/05 00:42:09;;;;;;;3.70;1.50;;;12.20;52.00;;;;;;345500;28;972;-56
2023/12/05 00:42:20;;;;;;;4.10;1.45;;;12.30;52.00;;;;;;345523;28;1036;-55
2023/12/05 00:42:31;;;;;;;4.07;1.45;;;12.30;51.80;;;;;;345493;28;1413;-56
2023/12/05 00:42:42;;;;;;;5.82;1.50;;;12.30;51.80;;;;;;345496;28;857;-54
2023/12/05 00:42:53;;;;;;;5.88;1.50;;;12.30;51.70;;;;;;345571;28;1057;-57
2023/12/05 00:43:04;;;;;;;4.82;1.50;;;12.20;51.60;;;;;;345371;28;1174;-56
2023/12/05 00:43:14;;;;;;;3.42;1.30;;;12.30;51.50;;;;;;345542;28;899;-57
2023/12/05 00:43:25;;;;;;;4.13;1.23;;;12.30;51.50;;;;;;345538;28;881;-55
2023/12/05 00:43:36;;;;;;;4.30;1.20;;;12.20;51.50;;;;;;345408;28;1054;-56
2023/12/05 00:43:47;;;;;;;3.58;1.30;;;12.30;51.60;;;;;;345550;28;861;-55
2023/12/05 00:43:58;;;;;;;3.57;1.30;;;12.30;51.50;;;;;;345531;28;960;-54
2023/12/05 00:44:08;;;;;;;5.78;1.45;;;12.30;51.50;;;;;;345424;28;980;-55
2023/12/05 00:44:19;;;;;;;6.47;1.58;;;12.30;51.50;;;;;;345506;28;1314;-56
2023/12/05 00:44:30;;;;;;;6.10;1.60;;;12.30;51.60;;;;;;345546;28;943;-56
2023/12/05 00:44:41;;;;;;;3.85;1.50;;;12.30;51.60;;;;;;345392;28;1015;-56
2023/12/05 00:44:52;;;;;;;3.83;1.30;;;12.30;51.70;;;;;;345524;28;1016;-55
2023/12/05 00:45:03;;;;;;;3.77;1.30;;;12.30;51.70;;;;;;345441;28;1949;-55
2023/12/05 00:45:14;;;;;;;3.85;1.30;;;12.30;51.70;;;;;;345571;28;869;-56
2023/12/05 00:45:24;;;;;;;3.83;1.30;;;12.30;51.70;;;;;;345469;28;918;-56
2023/12/05 00:45:35;;;;;;;4.50;1.38;;;12.20;51.50;;;;;;345500;28;1008;-55
2023/12/05 00:45:46;;;;;;;4.07;1.35;;;12.30;51.50;;;;;;345518;28;1012;-55
2023/12/05 00:45:57;;;;;;;4.50;1.40;;;12.30;51.50;;;;;;345442;28;1479;-56
2023/12/05 00:46:08;;;;;;;4.07;1.20;;;12.30;51.60;;;;;;345410;28;1754;-57
2023/12/05 00:46:21;;;;;;;4.80;1.20;;;12.20;51.60;;;;;;345564;28;806;-56
2023/12/05 00:46:31;;;;;;;4.32;1.33;;;12.20;51.70;;;;;;345537;28;1937;-55
2023/12/05 00:46:42;;;;;;;4.70;1.50;;;12.30;51.70;;;;;;345505;28;857;-56
2023/12/05 00:46:53;;;;;;;3.95;1.33;;;12.30;51.80;;;;;;345433;28;1973;-56
2023/12/05 00:47:05;;;;;;;3.47;1.27;;;12.20;51.70;;;;;;345513;28;2598;-55
2023/12/05 00:47:16;;;;;;;3.42;1.30;;;12.20;51.70;;;;;;345502;28;1039;-56
2023/12/05 00:47:27;;;;;;;3.33;1.37;;;12.20;51.70;;;;;;345501;28;1103;-55
2023/12/05 00:47:38;;;;;;;4.05;1.30;;;12.30;51.70;;;;;;345408;28;1006;-55
2023/12/05 00:47:51;;;;;;;4.97;1.30;;;12.30;51.70;;;;;;345484;28;1108;-56
2023/12/05 00:48:01;;;;;;;4.60;1.20;;;12.30;51.70;;;;;;345553;28;939;-55
2023/12/05 00:48:12;;;;;;;3.40;1.15;;;12.20;51.70;;;;;;345452;28;1122;-56
2023/12/05 00:48:23;;;;;;;3.25;1.20;;;12.30;51.50;;;;;;345406;28;1070;-56
2023/12/05 00:48:34;;;;;;;3.75;1.40;;;12.20;51.40;;;;;;345543;28;876;-56
2023/12/05 00:48:44;;;;;;;3.83;1.53;;;12.20;51.40;;;;;;345440;28;1028;-55
2023/12/05 00:48:55;;;;;;;4.65;1.60;;;12.20;51.40;;;;;;345525;28;1108;-55
2023/12/05 00:49:06;;;;;;;4.20;1.42;;;12.20;51.50;;;;;;345396;28;1044;-55
2023/12/05 00:49:17;;;;;;;4.32;1.27;;;12.20;51.50;;;;;;345518;28;931;-56
2023/12/05 00:49:28;;;;;;;3.97;1.30;;;12.20;51.60;;;;;;345498;28;1100;-55
2023/12/05 00:49:38;;;;;;;4.35;1.35;;;12.20;51.60;;;;;;345464;28;1028;-55
2023/12/05 00:49:49;;;;;;;3.63;1.30;;;12.20;51.50;;;;;;345423;28;1850;-56
2023/12/05 00:50:00;;;;;;;3.58;1.30;;;12.20;51.60;;;;;;345471;28;1471;-56
2023/12/05 00:50:11;;;;;;;2.90;1.20;;;12.20;51.90;;;;;;345519;28;1011;-57
2023/12/05 00:50:22;;;;;;;2.58;1.20;;;12.20;52.30;;;;;;345494;28;910;-55
2023/12/05 00:50:33;;;;;;;2.25;1.00;;;12.20;52.30;;;;;;345454;28;1083;-57
2023/12/05 00:50:43;;;;;;;3.00;1.08;;;12.20;52.30;;;;;;345457;28;1103;-55
2023/12/05 00:50:54;;;;;;;3.20;1.08;;;12.20;52.10;;;;;;345450;28;1224;-56
2023/12/05 00:51:05;;;;;;;3.30;1.33;;;12.20;52.10;;;;;;345549;28;860;-56
2023/12/05 00:51:16;;;;;;;3.17;1.42;;;12.20;52.10;;;;;;345408;28;940;-55
2023/12/05 00:51:27;;;;;;;3.15;1.42;;;12.20;51.90;;;;;;345530;28;932;-55
2023/12/05 00:51:38;;;;;;;3.45;1.33;;;12.20;51.80;;;;;;345514;28;1419;-55
2023/12/05 00:51:49;;;;;;;3.55;1.27;;;12.20;51.70;;;;;;345494;28;987;-55
2023/12/05 00:52:00;;;;;;;3.40;1.30;;;12.20;51.70;;;;;;345397;28;1119;-54
2023/12/05 00:52:11;;;;;;;2.88;1.10;;;12.20;51.80;;;;;;345493;28;1170;-56
2023/12/05 00:52:22;;;;;;;3.13;1.20;;;12.20;51.80;;;;;;345406;28;1436;-55
2023/12/05 00:52:33;;;;;;;3.35;1.15;;;12.20;51.90;;;;;;345557;28;893;-56
2023/12/05 00:52:44;;;;;;;3.45;1.20;;;12.20;51.80;;;;;;345416;28;1259;-55
2023/12/05 00:52:54;;;;;;;3.30;1.10;;;12.20;51.70;;;;;;345520;28;999;-56
2023/12/05 00:53:05;;;;;;;2.90;1.10;;;12.20;51.70;;;;;;345488;28;1264;-56
2023/12/05 00:53:16;;;;;;;2.60;1.13;;;12.20;51.60;;;;;;345490;28;1103;-56
2023/12/05 00:53:27;;;;;;;2.80;1.20;;;12.20;51.70;;;;;;345405;28;1130;-55
2023/12/05 00:53:38;;;;;;;3.10;1.25;;;12.20;51.60;;;;;;345561;28;1843;-56
2023/12/05 00:53:49;;;;;;;3.25;1.27;;;12.20;51.70;;;;;;345497;28;938;-56
2023/12/05 00:53:59;;;;;;;3.42;1.27;;;12.20;51.70;;;;;;345540;28;866;-56
2023/12/05 00:54:10;;;;;;;3.08;1.30;;;12.20;51.80;;;;;;345424;28;1088;-55
2023/12/05 00:54:21;;;;;;;2.67;1.10;;;12.20;51.70;;;;;;345525;28;809;-56
2023/12/05 00:54:32;;;;;;;3.30;1.20;;;12.20;51.70;;;;;;345560;28;846;-56
2023/12/05 00:54:43;;;;;;;3.60;1.20;;;12.20;51.70;;;;;;345415;28;1269;-55
2023/12/05 00:54:54;;;;;;;4.13;1.35;;;12.20;51.70;;;;;;345387;28;2097;-56
2023/12/05 00:55:05;;;;;;;3.83;1.42;;;12.20;51.70;;;;;;345505;28;1517;-55
2023/12/05 00:55:15;;;;;;;4.60;1.60;;;12.20;51.70;;;;;;345466;28;1217;-57
2023/12/05 00:55:26;;;;;;;4.65;1.55;;;12.20;51.80;;;;;;345435;28;1903;-55
2023/12/05 00:55:37;;;;;;;4.88;1.50;;;12.20;51.80;;;;;;345392;28;1739;-56
2023/12/05 00:55:48;;;;;;;3.97;1.30;;;12.20;51.80;;;;;;345476;28;880;-55
2023/12/05 00:55:59;;;;;;;3.70;1.40;;;12.20;51.80;;;;;;345489;28;1242;-54
2023/12/05 00:56:14;;;;;;;3.80;1.40;;;12.20;51.80;;;;;;345449;28;1453;-55
2023/12/05 00:56:25;;;;;;;4.03;1.50;;;12.20;51.70;;;;;;345388;28;1081;-55
2023/12/05 00:56:36;;;;;;;4.22;1.45;;;12.20;51.70;;;;;;345516;28;1119;-55
2023/12/05 00:56:47;;;;;;;5.00;1.42;;;12.20;51.60;;;;;;345472;28;885;-56
2023/12/05 00:56:58;;;;;;;5.13;1.40;;;12.20;51.50;;;;;;345492;28;1083;-56
2023/12/05 00:57:09;;;;;;;5.10;1.65;;;12.20;51.50;;;;;;345430;28;1003;-59
2023/12/05 00:57:20;;;;;;;4.50;1.63;;;12.20;51.50;;;;;;345483;28;1020;-55
2023/12/05 00:57:30;;;;;;;3.60;1.70;;;12.20;51.50;;;;;;345545;28;972;-56
2023/12/05 00:57:41;;;;;;;3.37;1.50;;;12.20;51.40;;;;;;345481;28;1067;-57
2023/12/05 00:57:52;;;;;;;3.88;1.48;;;12.20;51.40;;;;;;345392;28;911;-55
2023/12/05 00:58:03;;;;;;;3.77;1.57;;;12.20;51.40;;;;;;345520;28;1000;-56
2023/12/05 00:58:14;;;;;;;3.03;1.42;;;12.20;51.30;;;;;;345534;28;853;-55
2023/12/05 00:58:25;;;;;;;2.83;1.40;;;12.20;51.20;;;;;;345501;28;1019;-56
2023/12/05 00:58:35;;;;;;;2.75;1.30;;;12.20;51.20;;;;;;345409;28;1054;-57
2023/12/05 00:58:47;;;;;;;3.15;1.30;;;12.20;51.20;;;;;;345519;28;1009;-54
2023/12/05 00:58:58;;;;;;;3.13;1.23;;;12.20;51.10;;;;;;345469;28;992;-56